Airfield :
LOGIN :

Register | Disclaimer

   EN    FR    IT 

 










Legend :    VFR   Marginal VFR   IFR   Intensive IFR   Very Intensive IFR
Visi :
Ceiling :
>= 8 km
>= 3000ft
5 to 8 km
1000 to 3000 ft
1500m to 5 km
500 to 1000 ft
800 to 1500m
200 to 500 ft
< 800m
< 200 ft
Symbols :   Thunderstorms  Fog  Heavy snow  Heavy precipitations  Wind > 20 kt
SIGMETs :     Misc.  Thunderstorms  Icing  Turbulence  Mountain Waves  Volcanic Ashes






- Airport Elevation : 268 ft
- IATA code : BFS


EGAA - Belfast Aldergrove

CURRENT METAR :
  • 251020Z 21009KT 9999 BKN014 06/05 Q1012

EXPIRED METARs :
  • 250950Z 21007KT 180V240 9999 BKN011 06/05 Q1012
  • 250920Z 21007KT 180V250 9999 SCT009 BKN013 06/05 Q1012
  • 250850Z 21009KT 9999 OVC013 06/05 Q1012
  • 250820Z 22008KT 9999 OVC010 06/05 Q1012
  • 250750Z 21007KT 9999 OVC010 06/05 Q1012

TAF TAF EGAA
Valid from the 25 at 06:00 until the 26 at 06:00 UTC


250500Z 2506/2606 21012KT 9999 FEW004 BKN015
TEMPO 2506/2510 BKN006
PROB30
TEMPO 2506/2508 BKN004
PROB30
TEMPO 2510/2518 BKN009
TEMPO 2518/2606 BKN008
BECMG 2520/2523 18016G26KT
PROB40
TEMPO 2602/2606 7000 RA



MET'MAP, your aeronautical weather chart ! - Copyright ORBIFLY December 2007 - Disclaimer

ORBIFLY MET'MAP TEAM :

Programming & Development : Alexandra Zaïnal
Concept & original design : Baudouin d'Aumeries
Assistance for programming : Marc-Olivier Méhu
Technical & hardware support : Manuel Goepfert

Contact : metmap@orbifly.com




SOURCES & CREDITS :

   NOAA